sensor_id;sensor_type;location;lat;lon;timestamp;P1;P2;P0
33948;PMS7003;20229;49.856;19.030;2022-12-07T00:00:51;4;4;3
33948;PMS7003;20229;49.856;19.030;2022-12-07T00:06:14;5;3;3
33948;PMS7003;20229;49.856;19.030;2022-12-07T00:11:19;5;5;3
33948;PMS7003;20229;49.856;19.030;2022-12-07T00:16:39;5;4;3
33948;PMS7003;20229;49.856;19.030;2022-12-07T00:21:43;4;4;3
33948;PMS7003;20229;49.856;19.030;2022-12-07T00:27:04;4;3;2
33948;PMS7003;20229;49.856;19.030;2022-12-07T00:32:08;5;4;3
33948;PMS7003;20229;49.856;19.030;2022-12-07T00:37:30;8;8;5
33948;PMS7003;20229;49.856;19.030;2022-12-07T00:42:33;6;6;3
33948;PMS7003;20229;49.856;19.030;2022-12-07T00:47:56;9;9;8
33948;PMS7003;20229;49.856;19.030;2022-12-07T00:52:59;5;5;5
33948;PMS7003;20229;49.856;19.030;2022-12-07T00:58:21;8;7;6
33948;PMS7003;20229;49.856;19.030;2022-12-07T01:03:25;8;7;5
33948;PMS7003;20229;49.856;19.030;2022-12-07T01:08:47;7;6;5
33948;PMS7003;20229;49.856;19.030;2022-12-07T01:13:52;5;5;3
33948;PMS7003;20229;49.856;19.030;2022-12-07T01:19:12;6;6;5
33948;PMS7003;20229;49.856;19.030;2022-12-07T01:24:16;6;5;4
33948;PMS7003;20229;49.856;19.030;2022-12-07T01:29:38;6;4;3
33948;PMS7003;20229;49.856;19.030;2022-12-07T01:34:42;6;5;3
33948;PMS7003;20229;49.856;19.030;2022-12-07T01:40:04;15;14;12
33948;PMS7003;20229;49.856;19.030;2022-12-07T01:50:29;4;3;2
33948;PMS7003;20229;49.856;19.030;2022-12-07T01:55:37;8;7;5
33948;PMS7003;20229;49.856;19.030;2022-12-07T02:00:55;9;8;5
33948;PMS7003;20229;49.856;19.030;2022-12-07T02:05:58;8;7;5
33948;PMS7003;20229;49.856;19.030;2022-12-07T02:11:21;11;9;7
33948;PMS7003;20229;49.856;19.030;2022-12-07T02:16:31;11;9;6
33948;PMS7003;20229;49.856;19.030;2022-12-07T02:21:48;11;10;8
33948;PMS7003;20229;49.856;19.030;2022-12-07T02:42:46;11;11;9
33948;PMS7003;20229;49.856;19.030;2022-12-07T02:47:55;10;9;7
33948;PMS7003;20229;49.856;19.030;2022-12-07T02:53:03;11;10;8
33948;PMS7003;20229;49.856;19.030;2022-12-07T03:03:29;14;13;11
33948;PMS7003;20229;49.856;19.030;2022-12-07T03:08:52;15;14;11
33948;PMS7003;20229;49.856;19.030;2022-12-07T03:19:12;18;15;12
33948;PMS7003;20229;49.856;19.030;2022-12-07T03:24:21;11;11;9
33948;PMS7003;20229;49.856;19.030;2022-12-07T03:29:31;28;24;19
33948;PMS7003;20229;49.856;19.030;2022-12-07T03:34:47;15;13;11
33948;PMS7003;20229;49.856;19.030;2022-12-07T03:40:13;12;11;8
33948;PMS7003;20229;49.856;19.030;2022-12-07T03:45:12;9;9;5
33948;PMS7003;20229;49.856;19.030;2022-12-07T03:55:38;15;11;7
33948;PMS7003;20229;49.856;19.030;2022-12-07T04:00:46;13;12;8
33948;PMS7003;20229;49.856;19.030;2022-12-07T04:06:03;14;12;8
33948;PMS7003;20229;49.856;19.030;2022-12-07T04:11:07;14;9;6
33948;PMS7003;20229;49.856;19.030;2022-12-07T04:16:28;12;10;6
33948;PMS7003;20229;49.856;19.030;2022-12-07T04:21:32;8;6;2
33948;PMS7003;20229;49.856;19.030;2022-12-07T04:26:54;14;12;8
33948;PMS7003;20229;49.856;19.030;2022-12-07T04:31:58;10;9;6
33948;PMS7003;20229;49.856;19.030;2022-12-07T04:37:20;25;22;18
33948;PMS7003;20229;49.856;19.030;2022-12-07T04:42:23;22;20;17
33948;PMS7003;20229;49.856;19.030;2022-12-07T04:47:45;8;8;5
33948;PMS7003;20229;49.856;19.030;2022-12-07T04:52:48;12;9;6
33948;PMS7003;20229;49.856;19.030;2022-12-07T04:58:11;16;13;10
33948;PMS7003;20229;49.856;19.030;2022-12-07T05:03:15;14;11;9
33948;PMS7003;20229;49.856;19.030;2022-12-07T05:08:36;8;7;5
33948;PMS7003;20229;49.856;19.030;2022-12-07T05:13:40;11;9;7
33948;PMS7003;20229;49.856;19.030;2022-12-07T05:19:02;14;11;8
33948;PMS7003;20229;49.856;19.030;2022-12-07T05:24:07;15;12;7
33948;PMS7003;20229;49.856;19.030;2022-12-07T05:29:28;14;10;8
33948;PMS7003;20229;49.856;19.030;2022-12-07T05:34:31;10;9;8
33948;PMS7003;20229;49.856;19.030;2022-12-07T05:39:53;12;10;8
33948;PMS7003;20229;49.856;19.030;2022-12-07T05:44:57;13;11;8
33948;PMS7003;20229;49.856;19.030;2022-12-07T05:50:19;12;11;7
33948;PMS7003;20229;49.856;19.030;2022-12-07T05:55:23;7;6;4
33948;PMS7003;20229;49.856;19.030;2022-12-07T06:00:45;10;9;6
33948;PMS7003;20229;49.856;19.030;2022-12-07T06:05:48;10;9;6
33948;PMS7003;20229;49.856;19.030;2022-12-07T06:11:10;8;8;6
33948;PMS7003;20229;49.856;19.030;2022-12-07T06:16:26;11;9;7
33948;PMS7003;20229;49.856;19.030;2022-12-07T06:21:36;16;12;9
33948;PMS7003;20229;49.856;19.030;2022-12-07T06:26:40;13;9;7
33948;PMS7003;20229;49.856;19.030;2022-12-07T06:32:02;13;13;9
33948;PMS7003;20229;49.856;19.030;2022-12-07T06:37:06;12;11;8
33948;PMS7003;20229;49.856;19.030;2022-12-07T06:42:27;11;10;7
33948;PMS7003;20229;49.856;19.030;2022-12-07T06:47:30;13;11;8
33948;PMS7003;20229;49.856;19.030;2022-12-07T06:52:53;23;22;17
33948;PMS7003;20229;49.856;19.030;2022-12-07T06:57:56;12;11;8
33948;PMS7003;20229;49.856;19.030;2022-12-07T07:03:18;12;11;8
33948;PMS7003;20229;49.856;19.030;2022-12-07T07:08:22;12;11;7
33948;PMS7003;20229;49.856;19.030;2022-12-07T07:13:45;10;7;5
33948;PMS7003;20229;49.856;19.030;2022-12-07T07:18:48;10;8;6
33948;PMS7003;20229;49.856;19.030;2022-12-07T07:24:10;11;8;5
33948;PMS7003;20229;49.856;19.030;2022-12-07T07:29:14;10;9;6
33948;PMS7003;20229;49.856;19.030;2022-12-07T07:34:36;14;13;10
33948;PMS7003;20229;49.856;19.030;2022-12-07T07:39:39;14;13;10
33948;PMS7003;20229;49.856;19.030;2022-12-07T07:45:01;11;9;6
33948;PMS7003;20229;49.856;19.030;2022-12-07T07:50:06;14;12;8
33948;PMS7003;20229;49.856;19.030;2022-12-07T07:55:27;16;13;10
33948;PMS7003;20229;49.856;19.030;2022-12-07T08:00:31;21;18;13
33948;PMS7003;20229;49.856;19.030;2022-12-07T08:05:53;28;23;15
33948;PMS7003;20229;49.856;19.030;2022-12-07T08:10:56;26;20;14
33948;PMS7003;20229;49.856;19.030;2022-12-07T08:16:19;30;21;12
33948;PMS7003;20229;49.856;19.030;2022-12-07T08:21:22;34;23;15
33948;PMS7003;20229;49.856;19.030;2022-12-07T08:26:45;18;14;9
33948;PMS7003;20229;49.856;19.030;2022-12-07T08:31:48;12;10;7
33948;PMS7003;20229;49.856;19.030;2022-12-07T08:37:10;13;11;8
33948;PMS7003;20229;49.856;19.030;2022-12-07T08:42:13;9;8;6
33948;PMS7003;20229;49.856;19.030;2022-12-07T08:47:37;10;9;7
33948;PMS7003;20229;49.856;19.030;2022-12-07T08:52:44;14;10;8
33948;PMS7003;20229;49.856;19.030;2022-12-07T08:58:02;16;12;9
33948;PMS7003;20229;49.856;19.030;2022-12-07T09:03:06;16;15;12
33948;PMS7003;20229;49.856;19.030;2022-12-07T09:08:31;14;13;10
33948;PMS7003;20229;49.856;19.030;2022-12-07T09:13:39;12;8;7
33948;PMS7003;20229;49.856;19.030;2022-12-07T09:18:53;14;13;9
33948;PMS7003;20229;49.856;19.030;2022-12-07T09:23:56;15;10;8
33948;PMS7003;20229;49.856;19.030;2022-12-07T09:29:18;9;8;6
33948;PMS7003;20229;49.856;19.030;2022-12-07T09:34:22;6;5;4
33948;PMS7003;20229;49.856;19.030;2022-12-07T09:39:44;19;16;14
33948;PMS7003;20229;49.856;19.030;2022-12-07T09:44:47;8;7;5
33948;PMS7003;20229;49.856;19.030;2022-12-07T09:50:17;7;4;3
33948;PMS7003;20229;49.856;19.030;2022-12-07T09:55:27;9;8;5
33948;PMS7003;20229;49.856;19.030;2022-12-07T10:00:35;7;6;4
33948;PMS7003;20229;49.856;19.030;2022-12-07T10:05:43;11;10;7
33948;PMS7003;20229;49.856;19.030;2022-12-07T10:11:01;12;10;8
33948;PMS7003;20229;49.856;19.030;2022-12-07T10:16:55;5;4;2
33948;PMS7003;20229;49.856;19.030;2022-12-07T10:21:32;18;17;15
33948;PMS7003;20229;49.856;19.030;2022-12-07T10:26:50;31;28;25
33948;PMS7003;20229;49.856;19.030;2022-12-07T10:31:56;79;74;71
33948;PMS7003;20229;49.856;19.030;2022-12-07T10:42:23;82;77;73
33948;PMS7003;20229;49.856;19.030;2022-12-07T10:47:36;96;94;93
33948;PMS7003;20229;49.856;19.030;2022-12-07T10:52:53;69;61;57
33948;PMS7003;20229;49.856;19.030;2022-12-07T11:09:16;54;48;43
33948;PMS7003;20229;49.856;19.030;2022-12-07T11:45:23;11;10;7
33948;PMS7003;20229;49.856;19.030;2022-12-07T11:50:36;7;5;3
33948;PMS7003;20229;49.856;19.030;2022-12-07T12:06:33;15;12;8
33948;PMS7003;20229;49.856;19.030;2022-12-07T12:17:07;11;11;8
33948;PMS7003;20229;49.856;19.030;2022-12-07T12:22:19;12;11;8
33948;PMS7003;20229;49.856;19.030;2022-12-07T12:27:32;8;7;4
33948;PMS7003;20229;49.856;19.030;2022-12-07T12:32:39;11;7;5
33948;PMS7003;20229;49.856;19.030;2022-12-07T12:37:51;13;11;8
33948;PMS7003;20229;49.856;19.030;2022-12-07T12:42:57;13;10;6
33948;PMS7003;20229;49.856;19.030;2022-12-07T12:53:31;9;5;3
33948;PMS7003;20229;49.856;19.030;2022-12-07T12:58:42;12;11;8
33948;PMS7003;20229;49.856;19.030;2022-12-07T13:03:52;18;15;10
33948;PMS7003;20229;49.856;19.030;2022-12-07T13:09:17;27;22;17
33948;PMS7003;20229;49.856;19.030;2022-12-07T13:25:07;45;42;38
33948;PMS7003;20229;49.856;19.030;2022-12-07T13:30:15;68;59;57
33948;PMS7003;20229;49.856;19.030;2022-12-07T13:40:32;82;75;70
33948;PMS7003;20229;49.856;19.030;2022-12-07T13:45:37;85;77;73
33948;PMS7003;20229;49.856;19.030;2022-12-07T13:50:53;115;113;111
33948;PMS7003;20229;49.856;19.030;2022-12-07T13:55:57;127;124;121
33948;PMS7003;20229;49.856;19.030;2022-12-07T14:01:19;102;99;96
33948;PMS7003;20229;49.856;19.030;2022-12-07T14:06:24;117;113;109
33948;PMS7003;20229;49.856;19.030;2022-12-07T14:11:46;115;112;108
33948;PMS7003;20229;49.856;19.030;2022-12-07T14:16:56;123;119;117
33948;PMS7003;20229;49.856;19.030;2022-12-07T14:27:30;132;130;128
33948;PMS7003;20229;49.856;19.030;2022-12-07T14:32:38;109;106;104
33948;PMS7003;20229;49.856;19.030;2022-12-07T14:37:46;114;113;111
33948;PMS7003;20229;49.856;19.030;2022-12-07T14:48:18;122;121;120
33948;PMS7003;20229;49.856;19.030;2022-12-07T14:53:37;130;128;126
33948;PMS7003;20229;49.856;19.030;2022-12-07T14:58:43;115;112;109
33948;PMS7003;20229;49.856;19.030;2022-12-07T15:04:02;120;120;119
33948;PMS7003;20229;49.856;19.030;2022-12-07T15:09:05;106;106;103
33948;PMS7003;20229;49.856;19.030;2022-12-07T15:14:30;87;85;80
33948;PMS7003;20229;49.856;19.030;2022-12-07T15:19:33;73;66;62
33948;PMS7003;20229;49.856;19.030;2022-12-07T15:24:56;68;64;60
33948;PMS7003;20229;49.856;19.030;2022-12-07T15:30:00;63;59;55
33948;PMS7003;20229;49.856;19.030;2022-12-07T15:35:23;67;62;58
33948;PMS7003;20229;49.856;19.030;2022-12-07T15:40:26;65;60;55
33948;PMS7003;20229;49.856;19.030;2022-12-07T15:45:49;38;35;31
33948;PMS7003;20229;49.856;19.030;2022-12-07T15:50:53;34;28;24
33948;PMS7003;20229;49.856;19.030;2022-12-07T15:56:16;35;31;27
33948;PMS7003;20229;49.856;19.030;2022-12-07T16:01:22;29;24;20
33948;PMS7003;20229;49.856;19.030;2022-12-07T16:06:41;21;18;15
33948;PMS7003;20229;49.856;19.030;2022-12-07T16:11:45;6;4;2
33948;PMS7003;20229;49.856;19.030;2022-12-07T16:17:07;13;11;8
33948;PMS7003;20229;49.856;19.030;2022-12-07T16:22:11;20;17;12
33948;PMS7003;20229;49.856;19.030;2022-12-07T16:27:34;15;13;11
33948;PMS7003;20229;49.856;19.030;2022-12-07T16:32:37;13;13;11
33948;PMS7003;20229;49.856;19.030;2022-12-07T16:37:58;15;14;10
33948;PMS7003;20229;49.856;19.030;2022-12-07T16:43:02;13;11;9
33948;PMS7003;20229;49.856;19.030;2022-12-07T16:48:24;22;18;14
33948;PMS7003;20229;49.856;19.030;2022-12-07T16:53:28;16;14;11
33948;PMS7003;20229;49.856;19.030;2022-12-07T16:58:50;19;15;11
33948;PMS7003;20229;49.856;19.030;2022-12-07T17:03:53;8;6;3
33948;PMS7003;20229;49.856;19.030;2022-12-07T17:09:15;17;16;12
33948;PMS7003;20229;49.856;19.030;2022-12-07T17:14:19;17;15;12
33948;PMS7003;20229;49.856;19.030;2022-12-07T17:19:41;24;22;17
33948;PMS7003;20229;49.856;19.030;2022-12-07T17:24:45;17;15;12
33948;PMS7003;20229;49.856;19.030;2022-12-07T17:30:07;19;18;11
33948;PMS7003;20229;49.856;19.030;2022-12-07T17:35:12;30;27;19
33948;PMS7003;20229;49.856;19.030;2022-12-07T17:40:33;36;30;21
33948;PMS7003;20229;49.856;19.030;2022-12-07T17:45:36;47;36;23
33948;PMS7003;20229;49.856;19.030;2022-12-07T17:50:59;12;12;7
33948;PMS7003;20229;49.856;19.030;2022-12-07T17:56:15;28;25;16
33948;PMS7003;20229;49.856;19.030;2022-12-07T18:01:24;26;23;14
33948;PMS7003;20229;49.856;19.030;2022-12-07T18:06:27;28;22;13
33948;PMS7003;20229;49.856;19.030;2022-12-07T18:11:50;12;11;8
33948;PMS7003;20229;49.856;19.030;2022-12-07T18:16:53;20;19;13
33948;PMS7003;20229;49.856;19.030;2022-12-07T18:22:15;22;18;12
33948;PMS7003;20229;49.856;19.030;2022-12-07T18:27:19;16;14;9
33948;PMS7003;20229;49.856;19.030;2022-12-07T18:32:41;15;11;8
33948;PMS7003;20229;49.856;19.030;2022-12-07T18:37:44;19;17;12
33948;PMS7003;20229;49.856;19.030;2022-12-07T18:43:07;16;12;8
33948;PMS7003;20229;49.856;19.030;2022-12-07T18:48:11;20;15;9
33948;PMS7003;20229;49.856;19.030;2022-12-07T18:53:33;18;14;9
33948;PMS7003;20229;49.856;19.030;2022-12-07T18:58:37;26;21;14
33948;PMS7003;20229;49.856;19.030;2022-12-07T19:03:58;20;18;13
33948;PMS7003;20229;49.856;19.030;2022-12-07T19:09:02;11;9;6
33948;PMS7003;20229;49.856;19.030;2022-12-07T19:14:26;41;33;25
33948;PMS7003;20229;49.856;19.030;2022-12-07T19:19:39;23;21;16
33948;PMS7003;20229;49.856;19.030;2022-12-07T19:24:51;20;16;12
33948;PMS7003;20229;49.856;19.030;2022-12-07T19:29:57;15;13;10
33948;PMS7003;20229;49.856;19.030;2022-12-07T19:35:15;6;5;3
33948;PMS7003;20229;49.856;19.030;2022-12-07T19:40:19;8;7;5
33948;PMS7003;20229;49.856;19.030;2022-12-07T19:45:41;16;14;11
33948;PMS7003;20229;49.856;19.030;2022-12-07T19:50:47;8;8;6
33948;PMS7003;20229;49.856;19.030;2022-12-07T19:56:07;7;4;2
33948;PMS7003;20229;49.856;19.030;2022-12-07T20:01:15;14;14;12
33948;PMS7003;20229;49.856;19.030;2022-12-07T20:06:32;5;4;3
33948;PMS7003;20229;49.856;19.030;2022-12-07T20:11:36;4;4;2
33948;PMS7003;20229;49.856;19.030;2022-12-07T20:17:01;7;4;2
33948;PMS7003;20229;49.856;19.030;2022-12-07T20:22:05;5;4;2
33948;PMS7003;20229;49.856;19.030;2022-12-07T20:27:26;4;2;0
33948;PMS7003;20229;49.856;19.030;2022-12-07T20:32:30;7;6;3
33948;PMS7003;20229;49.856;19.030;2022-12-07T20:37:52;6;5;3
33948;PMS7003;20229;49.856;19.030;2022-12-07T20:42:55;3;3;1
33948;PMS7003;20229;49.856;19.030;2022-12-07T20:48:18;6;4;2
33948;PMS7003;20229;49.856;19.030;2022-12-07T20:53:21;2;2;1
33948;PMS7003;20229;49.856;19.030;2022-12-07T20:58:43;8;8;4
33948;PMS7003;20229;49.856;19.030;2022-12-07T21:03:47;9;7;4
33948;PMS7003;20229;49.856;19.030;2022-12-07T21:09:09;5;3;1
33948;PMS7003;20229;49.856;19.030;2022-12-07T21:14:13;18;15;10
33948;PMS7003;20229;49.856;19.030;2022-12-07T21:19:35;17;14;9
33948;PMS7003;20229;49.856;19.030;2022-12-07T21:24:38;14;12;7
33948;PMS7003;20229;49.856;19.030;2022-12-07T21:30:00;12;9;4
33948;PMS7003;20229;49.856;19.030;2022-12-07T21:35:04;8;8;5
33948;PMS7003;20229;49.856;19.030;2022-12-07T21:40:26;10;8;4
33948;PMS7003;20229;49.856;19.030;2022-12-07T21:45:30;21;13;8
33948;PMS7003;20229;49.856;19.030;2022-12-07T21:50:51;11;7;4
33948;PMS7003;20229;49.856;19.030;2022-12-07T21:55:54;19;14;8
33948;PMS7003;20229;49.856;19.030;2022-12-07T22:01:17;8;7;3
33948;PMS7003;20229;49.856;19.030;2022-12-07T22:06:24;5;4;1
33948;PMS7003;20229;49.856;19.030;2022-12-07T22:11:42;18;14;7
33948;PMS7003;20229;49.856;19.030;2022-12-07T22:16:46;13;12;8
33948;PMS7003;20229;49.856;19.030;2022-12-07T22:22:11;22;17;11
33948;PMS7003;20229;49.856;19.030;2022-12-07T22:27:17;6;5;3
33948;PMS7003;20229;49.856;19.030;2022-12-07T22:32:34;28;25;16
33948;PMS7003;20229;49.856;19.030;2022-12-07T22:37:37;4;4;2
33948;PMS7003;20229;49.856;19.030;2022-12-07T22:42:59;21;18;11
33948;PMS7003;20229;49.856;19.030;2022-12-07T22:48:03;2;2;0
33948;PMS7003;20229;49.856;19.030;2022-12-07T22:53:25;7;4;1
33948;PMS7003;20229;49.856;19.030;2022-12-07T22:58:29;4;3;2
33948;PMS7003;20229;49.856;19.030;2022-12-07T23:03:50;15;12;8
33948;PMS7003;20229;49.856;19.030;2022-12-07T23:08:55;32;28;17
33948;PMS7003;20229;49.856;19.030;2022-12-07T23:14:20;3;3;1
33948;PMS7003;20229;49.856;19.030;2022-12-07T23:19:28;3;2;1
33948;PMS7003;20229;49.856;19.030;2022-12-07T23:24:41;3;3;2
33948;PMS7003;20229;49.856;19.030;2022-12-07T23:29:45;3;2;1
33948;PMS7003;20229;49.856;19.030;2022-12-07T23:35:07;8;5;4
33948;PMS7003;20229;49.856;19.030;2022-12-07T23:40:11;9;6;4
33948;PMS7003;20229;49.856;19.030;2022-12-07T23:45:36;8;7;4
33948;PMS7003;20229;49.856;19.030;2022-12-07T23:50:39;5;5;3
33948;PMS7003;20229;49.856;19.030;2022-12-07T23:56:05;2;2;1
